createdAt,value
2022-12-08T00:01:35.900Z,100559.31
2022-12-08T00:04:04.585Z,100644.03
2022-12-08T00:06:55.838Z,100587.38
2022-12-08T00:09:24.457Z,100592.66
2022-12-08T00:12:02.388Z,100652.88
2022-12-08T00:14:32.426Z,100819.44
2022-12-08T00:17:10.146Z,100594.81
2022-12-08T00:19:40.408Z,100640.06
2022-12-08T00:22:08.799Z,100629.25
2022-12-08T00:24:40.670Z,100662.84
2022-12-08T00:27:09.260Z,100512.53
2022-12-08T00:29:38.845Z,100683.81
2022-12-08T00:32:09.292Z,100657.94
2022-12-08T00:34:36.024Z,100682.38
2022-12-08T00:37:07.760Z,100658.81
2022-12-08T00:39:34.413Z,100651.28
2022-12-08T00:42:13.241Z,100620.59
2022-12-08T00:44:46.928Z,100664.66
2022-12-08T00:47:14.841Z,100583.34
2022-12-08T00:49:42.174Z,100693.13
2022-12-08T00:52:15.642Z,100636.16
2022-12-08T00:54:42.251Z,100715.69
2022-12-08T00:57:10.233Z,100719.94
2022-12-08T00:59:36.835Z,100599.22
2022-12-08T01:02:09.713Z,100713.09
2022-12-08T01:04:36.581Z,100494.22
2022-12-08T01:07:03.290Z,100646.91
2022-12-08T01:09:29.892Z,100640.69
2022-12-08T01:11:59.559Z,100607.78
2022-12-08T01:14:26.797Z,100708.56
2022-12-08T01:16:53.540Z,100663.97
2022-12-08T01:19:22.891Z,100737.16
2022-12-08T01:21:49.490Z,100626.75
2022-12-08T01:24:19.652Z,100651.84
2022-12-08T01:26:47.558Z,100636.47
2022-12-08T01:29:22.688Z,100573.34
2022-12-08T01:31:49.457Z,100735.97
2022-12-08T01:34:16.125Z,100585.16
2022-12-08T01:36:44.535Z,100595.72
2022-12-08T01:39:22.074Z,100622.09
2022-12-08T01:41:48.767Z,100638.88
2022-12-08T01:44:18.403Z,100783.44
2022-12-08T01:46:49.573Z,100882.84
2022-12-08T01:49:19.705Z,100624.81
2022-12-08T01:52:03.091Z,100512.25
2022-12-08T01:54:40.040Z,100565.38
2022-12-08T01:57:18.323Z,100589.56
2022-12-08T01:59:52.932Z,100523.66
2022-12-08T02:02:22.700Z,100650.78
2022-12-08T02:04:52.122Z,100606.22
2022-12-08T02:07:18.951Z,100575.50
2022-12-08T02:09:50.685Z,100617.28
2022-12-08T02:12:17.744Z,100718.59
2022-12-08T02:14:44.389Z,100681.72
2022-12-08T02:17:35.254Z,100554.25
2022-12-08T02:20:17.611Z,100600.06
2022-12-08T02:23:27.922Z,100414.56
2022-12-08T02:25:54.474Z,100543.75
2022-12-08T02:28:41.817Z,100485.41
2022-12-08T02:31:42.092Z,100450.97
2022-12-08T02:34:21.375Z,100552.09
2022-12-08T02:37:00.830Z,100496.59
2022-12-08T02:39:57.003Z,100446.53
2022-12-08T02:42:37.444Z,100707.81
2022-12-08T02:45:14.798Z,100528.53
2022-12-08T02:47:42.283Z,100465.59
2022-12-08T02:50:10.186Z,100497.38
2022-12-08T02:52:45.793Z,100492.41
2022-12-08T02:55:24.820Z,100619.28
2022-12-08T02:58:15.334Z,100411.75
2022-12-08T03:01:10.697Z,100521.03
2022-12-08T03:03:59.923Z,100547.75
2022-12-08T03:06:40.390Z,100484.69
2022-12-08T03:09:22.172Z,100539.50
2022-12-08T03:12:18.565Z,100492.41
2022-12-08T03:14:53.331Z,100627.97
2022-12-08T03:17:24.373Z,100519.84
2022-12-08T03:20:00.170Z,100600.06
2022-12-08T03:22:27.882Z,100506.09
2022-12-08T03:24:58.165Z,100498.72
2022-12-08T03:27:29.076Z,100439.59
2022-12-08T03:29:58.240Z,100503.56
2022-12-08T03:32:34.805Z,100429.47
2022-12-08T03:35:12.563Z,100475.59
2022-12-08T03:37:40.424Z,100583.00
2022-12-08T03:40:16.092Z,100467.34
2022-12-08T03:42:45.478Z,100444.53
2022-12-08T03:45:12.096Z,100271.59
2022-12-08T03:47:42.725Z,100524.31
2022-12-08T03:50:09.669Z,100546.19
2022-12-08T03:52:39.028Z,100435.88
2022-12-08T03:55:06.202Z,100430.22
2022-12-08T03:57:32.832Z,100391.75
2022-12-08T03:59:59.480Z,100449.84
2022-12-08T04:02:29.149Z,100451.88
2022-12-08T04:04:55.786Z,100533.41
2022-12-08T04:07:22.386Z,100412.66
2022-12-08T04:09:49.415Z,100534.06
2022-12-08T04:12:16.051Z,100416.38
2022-12-08T04:14:43.330Z,100535.69
2022-12-08T04:17:13.267Z,100455.47
2022-12-08T04:19:41.018Z,100587.34
2022-12-08T04:22:10.827Z,100417.13
2022-12-08T04:24:40.140Z,100353.91
2022-12-08T04:27:06.862Z,100420.53
2022-12-08T04:29:33.761Z,100410.47
2022-12-08T04:32:03.260Z,100190.09
2022-12-08T04:34:29.870Z,100453.31
2022-12-08T04:36:56.786Z,100434.47
2022-12-08T04:39:23.390Z,100396.13
2022-12-08T04:41:50.012Z,100425.13
2022-12-08T04:44:16.628Z,100265.56
2022-12-08T04:46:43.886Z,100440.28
2022-12-08T04:49:10.768Z,100259.78
2022-12-08T04:51:37.458Z,100412.97
2022-12-08T04:54:04.182Z,100417.00
2022-12-08T04:56:31.101Z,100410.97
2022-12-08T04:58:57.732Z,100342.69
2022-12-08T05:01:24.616Z,100530.13
2022-12-08T05:03:54.447Z,100413.97
2022-12-08T05:06:21.071Z,100417.94
2022-12-08T05:08:50.554Z,100336.00
2022-12-08T05:11:17.158Z,100524.00
2022-12-08T05:13:46.693Z,100405.22
2022-12-08T05:16:15.111Z,100263.47
2022-12-08T05:18:42.456Z,100278.72
2022-12-08T05:21:09.516Z,100369.22
2022-12-08T05:23:36.582Z,100366.22
2022-12-08T05:26:06.608Z,100362.97
2022-12-08T05:28:42.333Z,100429.72
2022-12-08T05:31:11.354Z,100395.06
2022-12-08T05:33:38.031Z,100493.97
2022-12-08T05:36:04.988Z,100416.34
2022-12-08T05:38:31.629Z,100421.09
2022-12-08T05:40:59.033Z,100368.88
2022-12-08T05:43:26.915Z,100368.53
2022-12-08T05:45:54.145Z,100690.44
2022-12-08T05:48:20.847Z,100474.59
2022-12-08T05:50:52.134Z,100464.78
2022-12-08T05:53:20.203Z,100356.59
2022-12-08T05:55:48.412Z,100484.41
2022-12-08T05:58:21.456Z,100360.22
2022-12-08T06:00:49.636Z,100263.34
2022-12-08T06:03:20.585Z,100318.66
2022-12-08T06:05:48.122Z,100373.66
2022-12-08T06:08:19.615Z,100428.94
2022-12-08T06:10:46.998Z,100433.00
2022-12-08T06:13:14.510Z,100379.59
2022-12-08T06:15:41.558Z,100414.78
2022-12-08T06:18:11.818Z,100295.84
2022-12-08T06:20:38.742Z,100388.50
2022-12-08T06:23:05.381Z,100348.97
2022-12-08T06:25:32.573Z,100392.38
2022-12-08T06:27:59.183Z,100437.56
2022-12-08T06:30:26.160Z,100509.06
2022-12-08T06:32:52.870Z,100413.41
2022-12-08T06:35:22.601Z,100393.88
2022-12-08T06:37:51.571Z,100371.03
2022-12-08T06:40:18.251Z,100318.41
2022-12-08T06:42:45.169Z,100387.75
2022-12-08T06:45:16.542Z,100314.84
2022-12-08T06:47:43.774Z,100411.78
2022-12-08T06:50:12.152Z,100603.19
2022-12-08T06:52:49.358Z,100346.13
2022-12-08T06:55:42.994Z,100501.09
2022-12-08T06:58:09.600Z,100377.44
2022-12-08T07:00:38.241Z,100375.25
2022-12-08T07:03:07.689Z,100463.34
2022-12-08T07:05:35.370Z,100347.97
2022-12-08T07:08:08.020Z,100401.91
2022-12-08T07:10:35.015Z,100413.50
2022-12-08T07:13:02.162Z,100628.47
2022-12-08T07:15:29.567Z,100473.34
2022-12-08T07:17:59.766Z,100365.75
2022-12-08T07:20:26.790Z,100533.94
2022-12-08T07:22:53.859Z,100402.13
2022-12-08T07:25:20.755Z,100372.97
2022-12-08T07:27:50.828Z,100390.38
2022-12-08T07:30:18.806Z,100235.28
2022-12-08T07:32:45.891Z,100499.88
2022-12-08T07:35:12.679Z,100534.22
2022-12-08T07:37:39.529Z,100406.13
2022-12-08T07:40:07.966Z,100273.00
2022-12-08T07:42:43.739Z,100527.59
2022-12-08T07:45:10.471Z,100414.72
2022-12-08T07:47:37.131Z,100408.63
2022-12-08T07:50:04.591Z,100520.19
2022-12-08T07:52:31.422Z,100517.09
2022-12-08T07:55:00.663Z,100353.06
2022-12-08T07:57:27.343Z,100426.81
2022-12-08T07:59:53.990Z,100304.41
2022-12-08T08:02:32.673Z,100461.72
2022-12-08T08:05:02.521Z,100396.44
2022-12-08T08:07:31.311Z,100199.75
2022-12-08T08:09:58.171Z,100592.25
2022-12-08T08:12:32.073Z,100320.53
2022-12-08T08:15:04.779Z,100368.84
2022-12-08T08:17:31.542Z,100534.94
2022-12-08T08:19:58.250Z,100442.44
2022-12-08T08:22:25.861Z,100499.00
2022-12-08T08:24:53.184Z,100490.53
2022-12-08T08:27:22.897Z,100452.50
2022-12-08T08:29:54.768Z,100424.34
2022-12-08T08:32:21.699Z,100545.13
2022-12-08T08:34:48.379Z,100448.38
2022-12-08T08:37:15.144Z,100522.34
2022-12-08T08:39:47.288Z,100559.56
2022-12-08T08:42:14.221Z,100407.50
2022-12-08T08:44:40.922Z,100529.22
2022-12-08T08:47:07.831Z,100327.88
2022-12-08T08:49:34.842Z,100370.59
2022-12-08T08:52:01.493Z,100408.75
2022-12-08T08:54:31.100Z,100345.59
2022-12-08T08:56:58.685Z,100382.22
2022-12-08T08:59:29.698Z,100616.81
2022-12-08T09:01:59.088Z,100399.69
2022-12-08T09:04:26.109Z,100470.66
2022-12-08T09:06:55.915Z,100404.44
2022-12-08T09:09:25.502Z,100385.91
2022-12-08T09:11:52.162Z,100395.50
2022-12-08T09:14:18.826Z,100327.34
2022-12-08T09:16:45.493Z,100377.75
2022-12-08T09:19:12.109Z,100390.31
2022-12-08T09:21:40.507Z,100379.72
2022-12-08T09:24:08.380Z,100430.81
2022-12-08T09:26:35.005Z,100410.28
2022-12-08T09:29:07.873Z,100419.19
2022-12-08T09:31:34.538Z,100377.38
2022-12-08T09:34:01.267Z,100438.34
2022-12-08T09:36:27.989Z,100427.94
2022-12-08T09:38:55.423Z,100393.75
2022-12-08T09:41:40.282Z,100390.50
2022-12-08T09:44:33.279Z,100490.41
2022-12-08T09:47:03.639Z,100473.19
2022-12-08T09:49:47.632Z,100487.06
2022-12-08T09:52:22.616Z,100456.50
2022-12-08T09:54:50.721Z,100361.84
2022-12-08T09:57:21.154Z,100331.53
2022-12-08T10:00:03.520Z,100342.13
2022-12-08T10:02:40.011Z,100230.72
2022-12-08T10:05:09.920Z,100381.63
2022-12-08T10:07:47.344Z,100260.53
2022-12-08T10:10:51.364Z,100401.41
2022-12-08T10:13:25.713Z,100191.59
2022-12-08T10:16:09.014Z,100380.88
2022-12-08T10:18:37.833Z,100282.88
2022-12-08T10:21:26.495Z,100343.88
2022-12-08T10:23:58.838Z,100342.59
2022-12-08T10:26:28.559Z,100329.78
2022-12-08T10:29:04.731Z,100329.78
2022-12-08T10:31:33.316Z,100317.03
2022-12-08T10:34:13.163Z,100249.41
2022-12-08T10:36:50.124Z,100356.88
2022-12-08T10:39:40.531Z,100242.25
2022-12-08T10:42:16.699Z,100460.59
2022-12-08T10:45:01.034Z,100188.03
2022-12-08T10:47:35.123Z,100400.41
2022-12-08T10:50:24.486Z,100450.16
2022-12-08T10:53:32.065Z,100315.16
2022-12-08T10:56:02.417Z,100414.50
2022-12-08T10:58:43.698Z,100380.38
2022-12-08T11:01:34.361Z,100404.16
2022-12-08T11:04:34.464Z,100402.34
2022-12-08T11:07:02.707Z,100276.59
2022-12-08T11:09:41.286Z,100268.97
2022-12-08T11:12:16.652Z,100269.78
2022-12-08T11:14:43.391Z,100331.94
2022-12-08T11:17:32.818Z,100278.31
2022-12-08T11:20:20.203Z,100279.31
2022-12-08T11:22:57.051Z,100348.00
2022-12-08T11:25:33.025Z,100314.78
2022-12-08T11:28:01.965Z,100165.28
2022-12-08T11:30:48.698Z,100267.63
2022-12-08T11:33:28.659Z,100273.78
2022-12-08T11:36:10.447Z,100362.19
2022-12-08T11:38:52.011Z,100146.69
2022-12-08T11:41:31.250Z,100266.56
2022-12-08T11:44:05.275Z,100275.69
2022-12-08T11:46:43.313Z,100171.63
2022-12-08T11:49:18.919Z,100295.31
2022-12-08T11:52:07.137Z,100313.25
2022-12-08T11:55:05.589Z,100226.63
2022-12-08T11:57:36.129Z,100282.31
2022-12-08T12:00:08.658Z,100491.19
2022-12-08T12:02:45.512Z,100278.19
2022-12-08T12:08:53.217Z,100344.91
2022-12-08T12:12:17.689Z,100352.59
2022-12-08T12:14:50.514Z,100205.75
2022-12-08T12:17:51.856Z,100405.97
2022-12-08T12:20:25.581Z,100195.59
2022-12-08T12:23:34.684Z,100413.28
2022-12-08T12:26:06.015Z,100285.81
2022-12-08T12:29:03.110Z,100242.75
2022-12-08T12:31:35.637Z,100443.56
2022-12-08T12:34:27.171Z,100261.22
2022-12-08T12:37:08.363Z,100251.28
2022-12-08T12:39:48.505Z,100194.16
2022-12-08T12:42:45.213Z,100309.25
2022-12-08T12:45:23.920Z,100211.97
2022-12-08T12:47:56.207Z,100312.00
2022-12-08T12:50:50.320Z,100314.06
2022-12-08T12:53:20.353Z,100276.63
2022-12-08T12:56:05.148Z,100316.66
2022-12-08T12:58:31.686Z,100320.75
2022-12-08T13:01:12.247Z,100268.13
2022-12-08T13:04:07.737Z,100191.09
2022-12-08T13:06:53.601Z,100260.69
2022-12-08T13:09:33.600Z,100209.00
2022-12-08T13:12:12.038Z,100294.81
2022-12-08T13:15:04.720Z,100246.38
2022-12-08T13:17:36.724Z,100288.63
2022-12-08T13:20:07.783Z,100249.91
2022-12-08T13:23:15.652Z,100389.78
2022-12-08T13:25:51.195Z,100258.38
2022-12-08T13:28:28.108Z,100179.53
2022-12-08T13:31:48.361Z,100282.94
2022-12-08T13:34:55.108Z,100268.06
2022-12-08T13:37:55.179Z,57712.78
2022-12-08T13:41:33.758Z,57712.78
2022-12-08T13:48:26.611Z,57712.78
2022-12-08T13:55:12.256Z,57712.78
2022-12-08T13:57:14.621Z,57712.78
2022-12-08T13:59:45.693Z,57712.78
2022-12-08T14:02:46.857Z,57712.78
2022-12-08T14:05:19.069Z,57712.78
2022-12-08T14:07:58.126Z,57712.78
2022-12-08T14:10:30.615Z,57712.78
2022-12-08T14:13:07.316Z,57712.78
2022-12-08T14:15:40.045Z,57712.78
2022-12-08T14:18:34.918Z,57712.78
2022-12-08T14:21:21.874Z,57712.78
2022-12-08T14:23:52.389Z,57712.78
2022-12-08T14:26:26.052Z,57712.78
2022-12-08T14:28:56.696Z,57712.78
2022-12-08T14:31:24.331Z,57712.78
2022-12-08T14:33:56.520Z,57712.78
2022-12-08T14:36:29.382Z,57712.78
2022-12-08T14:38:59.584Z,57712.78
2022-12-08T14:41:38.137Z,57712.78
2022-12-08T14:44:24.822Z,57712.78
2022-12-08T14:47:08.668Z,57712.78
2022-12-08T14:49:50.777Z,57712.78
2022-12-08T14:52:18.728Z,57712.78
2022-12-08T14:54:49.073Z,57712.78
2022-12-08T14:57:19.362Z,57712.78
2022-12-08T14:59:48.302Z,57712.78
2022-12-08T15:02:22.224Z,57712.78
2022-12-08T15:05:12.472Z,57712.78
2022-12-08T15:07:57.596Z,57712.78
2022-12-08T15:10:31.042Z,57712.78
2022-12-08T15:13:09.999Z,57712.78
2022-12-08T15:15:58.288Z,57712.78
2022-12-08T15:18:42.170Z,57712.78
2022-12-08T15:21:12.839Z,57712.78
2022-12-08T15:23:52.173Z,57712.78
2022-12-08T15:26:30.969Z,57712.78
2022-12-08T15:29:14.447Z,57712.78
2022-12-08T15:31:41.182Z,57712.78
2022-12-08T15:34:07.815Z,57712.78
2022-12-08T15:36:47.759Z,57712.78
2022-12-08T15:39:38.508Z,57712.78
2022-12-08T15:42:18.861Z,57712.78
2022-12-08T15:44:46.061Z,57712.78
2022-12-08T15:47:18.348Z,57712.78
2022-12-08T15:49:46.700Z,57712.78
2022-12-08T15:52:19.306Z,57712.78
2022-12-08T15:54:54.484Z,57712.78
2022-12-08T16:00:53.513Z,57712.78
2022-12-08T16:09:19.463Z,57712.78
2022-12-08T16:12:07.274Z,57712.78
2022-12-08T16:17:22.651Z,57712.78
2022-12-08T16:19:58.448Z,57712.78
2022-12-08T16:25:22.385Z,57712.78
2022-12-08T16:28:23.363Z,57712.78
2022-12-08T16:30:52.818Z,57712.78
2022-12-08T16:33:19.894Z,57712.78
2022-12-08T16:35:46.697Z,57712.78
2022-12-08T16:38:19.342Z,57712.78
2022-12-08T16:41:13.793Z,57712.78
2022-12-08T16:43:40.504Z,57712.78
2022-12-08T16:46:07.223Z,57712.78
2022-12-08T16:48:33.859Z,57712.78
2022-12-08T16:51:03.156Z,57712.78
2022-12-08T16:53:38.533Z,57712.78
2022-12-08T16:56:31.945Z,57712.78
2022-12-08T16:59:02.960Z,57712.78
2022-12-08T17:01:29.996Z,57712.78
2022-12-08T17:04:29.231Z,57712.78
2022-12-08T17:06:43.364Z,57712.78
2022-12-08T17:09:10.036Z,57712.78
2022-12-08T17:11:42.984Z,57712.78
2022-12-08T17:14:10.446Z,57712.78
2022-12-08T17:16:37.117Z,57712.78
2022-12-08T17:19:04.252Z,57712.78
2022-12-08T17:21:30.859Z,57712.78
2022-12-08T17:23:57.471Z,57712.78
2022-12-08T17:26:26.638Z,57712.78
2022-12-08T17:29:01.583Z,57712.78
2022-12-08T17:31:30.566Z,57712.78
2022-12-08T17:34:10.435Z,57712.78
2022-12-08T17:36:37.321Z,57712.78
2022-12-08T17:39:04.259Z,57712.78
2022-12-08T17:41:31.407Z,57712.78
2022-12-08T17:43:59.827Z,57712.78
2022-12-08T17:46:29.431Z,57712.78
2022-12-08T17:48:59.028Z,57712.78
2022-12-08T17:51:25.695Z,57712.78
2022-12-08T17:53:52.391Z,57712.78
2022-12-08T17:56:21.393Z,57712.78
2022-12-08T17:58:54.020Z,57712.78
2022-12-08T18:01:21.894Z,57712.78
2022-12-08T18:03:48.616Z,57712.78
2022-12-08T18:06:19.301Z,57712.78
2022-12-08T18:08:46.073Z,57712.78
2022-12-08T18:11:16.042Z,57712.78
2022-12-08T18:13:42.720Z,57712.78
2022-12-08T18:16:09.560Z,57712.78
2022-12-08T18:18:38.544Z,57712.78
2022-12-08T18:21:08.155Z,57712.78
2022-12-08T18:23:37.654Z,57712.78
2022-12-08T18:26:05.990Z,57712.78
2022-12-08T18:28:36.056Z,57712.78
2022-12-08T18:31:16.713Z,57712.78
2022-12-08T18:33:45.860Z,57712.78
2022-12-08T18:36:23.090Z,57712.78
2022-12-08T18:38:50.191Z,57712.78
2022-12-08T18:41:31.732Z,57712.78
2022-12-08T18:44:05.182Z,57712.78
2022-12-08T18:46:34.257Z,57712.78
2022-12-08T18:49:03.532Z,57712.78
2022-12-08T18:51:30.640Z,57712.78
2022-12-08T18:53:58.414Z,57712.78
2022-12-08T18:56:29.239Z,57712.78
2022-12-08T18:59:02.830Z,57712.78
2022-12-08T19:01:31.924Z,57712.78
2022-12-08T19:06:48.353Z,57712.78
2022-12-08T19:09:15.934Z,57712.78
2022-12-08T19:11:43.362Z,57712.78
2022-12-08T19:14:13.207Z,57712.78
2022-12-08T19:16:39.887Z,57712.78
2022-12-08T19:19:06.544Z,57712.78
2022-12-08T19:21:33.841Z,57712.78
2022-12-08T19:24:00.686Z,57712.78
2022-12-08T19:26:31.970Z,57712.78
2022-12-08T19:29:01.607Z,57712.78
2022-12-08T19:31:31.773Z,57712.78
2022-12-08T19:34:04.195Z,57712.78
2022-12-08T19:36:35.518Z,57712.78
2022-12-08T19:39:23.830Z,57712.78
2022-12-08T19:42:14.925Z,57712.78
2022-12-08T19:44:53.826Z,57712.78
2022-12-08T19:47:28.411Z,57712.78
2022-12-08T19:50:15.818Z,57712.78
2022-12-08T19:52:43.480Z,57712.78
2022-12-08T19:55:14.059Z,57712.78
2022-12-08T19:57:49.534Z,57712.78
2022-12-08T20:00:16.884Z,57712.78
2022-12-08T20:02:49.874Z,57712.78
2022-12-08T21:11:36.577Z,100477.13
